createdAt,value
2022-09-18T00:01:33.402Z,8.30
2022-09-18T00:04:07.270Z,8.30
2022-09-18T00:06:38.102Z,8.30
2022-09-18T00:09:09.142Z,8.30
2022-09-18T00:11:44.016Z,8.30
2022-09-18T00:14:16.234Z,8.20
2022-09-18T00:16:43.271Z,8.20
2022-09-18T00:19:11.415Z,8.20
2022-09-18T00:21:43.152Z,8.20
2022-09-18T00:24:10.557Z,8.20
2022-09-18T00:26:37.854Z,8.20
2022-09-18T00:29:04.815Z,8.20
2022-09-18T00:31:35.653Z,8.20
2022-09-18T00:34:07.621Z,8.20
2022-09-18T00:36:35.978Z,8.20
2022-09-18T00:39:03.486Z,8.20
2022-09-18T00:41:35.515Z,8.20
2022-09-18T00:44:34.307Z,8.20
2022-09-18T00:47:09.947Z,8.20
2022-09-18T00:49:51.883Z,8.20
2022-09-18T00:52:23.753Z,8.30
2022-09-18T00:55:00.642Z,8.30
2022-09-18T00:57:32.833Z,8.30
2022-09-18T01:00:04.121Z,8.40
2022-09-18T01:02:31.190Z,8.40
2022-09-18T01:04:58.032Z,8.40
2022-09-18T01:07:57.380Z,8.50
2022-09-18T01:10:59.835Z,8.40
2022-09-18T01:13:35.763Z,8.50
2022-09-18T01:16:13.466Z,8.50
2022-09-18T01:19:12.062Z,8.50
2022-09-18T01:22:09.177Z,8.50
2022-09-18T01:25:17.878Z,8.50
2022-09-18T01:28:16.443Z,8.60
2022-09-18T01:30:47.459Z,8.60
2022-09-18T01:33:31.070Z,8.60
2022-09-18T01:36:04.338Z,8.60
2022-09-18T01:38:43.182Z,8.70
2022-09-18T01:41:21.568Z,8.70
2022-09-18T01:43:55.438Z,8.70
2022-09-18T01:46:25.529Z,8.70
2022-09-18T01:48:52.199Z,8.70
2022-09-18T01:51:27.309Z,8.70
2022-09-18T01:54:03.774Z,8.80
2022-09-18T01:56:53.721Z,8.70
2022-09-18T01:59:59.128Z,8.80
2022-09-18T02:02:37.424Z,8.80
2022-09-18T02:05:11.610Z,8.80
2022-09-18T02:07:50.343Z,8.80
2022-09-18T02:10:21.673Z,8.90
2022-09-18T02:12:51.519Z,8.80
2022-09-18T02:15:19.503Z,8.80
2022-09-18T02:17:56.081Z,8.80
2022-09-18T02:20:30.286Z,8.80
2022-09-18T02:23:04.445Z,8.80
2022-09-18T02:25:44.702Z,8.80
2022-09-18T02:28:16.390Z,8.80
2022-09-18T02:30:43.848Z,8.80
2022-09-18T02:33:26.894Z,8.90
2022-09-18T02:36:35.525Z,8.80
2022-09-18T02:39:40.929Z,8.90
2022-09-18T02:42:47.044Z,8.90
2022-09-18T02:45:40.088Z,8.90
2022-09-18T02:48:30.556Z,8.90
2022-09-18T02:51:22.808Z,8.90
2022-09-18T02:54:11.120Z,8.90
2022-09-18T02:56:52.762Z,8.90
2022-09-18T02:59:43.959Z,8.90
2022-09-18T03:02:13.524Z,8.90
2022-09-18T03:04:40.321Z,8.90
2022-09-18T03:07:07.324Z,8.90
2022-09-18T03:09:34.706Z,8.90
2022-09-18T03:12:03.070Z,8.90
2022-09-18T03:14:29.808Z,9.00
2022-09-18T03:16:56.516Z,9.00
2022-09-18T03:19:23.373Z,9.00
2022-09-18T03:21:51.134Z,9.00
2022-09-18T03:24:17.814Z,9.00
2022-09-18T03:26:44.516Z,9.00
2022-09-18T03:29:12.069Z,9.00
2022-09-18T03:31:39.163Z,9.00
2022-09-18T03:34:06.660Z,9.00
2022-09-18T03:36:33.390Z,9.00
2022-09-18T03:39:00.138Z,9.00
2022-09-18T03:41:27.114Z,9.00
2022-09-18T03:43:53.982Z,9.10
2022-09-18T03:46:24.077Z,9.10
2022-09-18T03:48:52.292Z,9.10
2022-09-18T03:51:20.346Z,9.10
2022-09-18T03:53:48.788Z,9.10
2022-09-18T03:56:15.901Z,9.10
2022-09-18T03:58:43.159Z,9.10
2022-09-18T04:01:10.450Z,9.10
2022-09-18T04:03:37.141Z,9.10
2022-09-18T04:06:03.970Z,9.10
2022-09-18T04:08:30.837Z,9.10
2022-09-18T04:10:57.627Z,9.10
2022-09-18T04:13:27.553Z,9.10
2022-09-18T04:15:54.371Z,9.10
2022-09-18T04:18:21.129Z,9.10
2022-09-18T04:20:47.863Z,9.10
2022-09-18T04:23:14.608Z,9.10
2022-09-18T04:25:42.906Z,9.10
2022-09-18T04:28:12.740Z,9.10
2022-09-18T04:30:39.540Z,9.10
2022-09-18T04:33:07.885Z,9.10
2022-09-18T04:35:34.958Z,9.20
2022-09-18T04:38:01.654Z,9.20
2022-09-18T04:40:28.422Z,9.20
2022-09-18T04:42:55.214Z,9.20
2022-09-18T04:45:22.101Z,9.20
2022-09-18T04:47:49.422Z,9.20
2022-09-18T04:50:16.299Z,9.20
2022-09-18T04:52:43.835Z,9.20
2022-09-18T04:55:10.523Z,9.20
2022-09-18T04:57:37.249Z,9.20
2022-09-18T05:00:06.666Z,9.20
2022-09-18T05:02:33.381Z,9.20
2022-09-18T05:05:00.077Z,9.20
2022-09-18T05:07:27.572Z,9.20
2022-09-18T05:09:54.316Z,9.20
2022-09-18T05:12:21.119Z,9.20
2022-09-18T05:14:47.857Z,9.20
2022-09-18T05:17:15.061Z,9.20
2022-09-18T05:19:41.765Z,9.20
2022-09-18T05:22:08.449Z,9.20
2022-09-18T05:24:35.232Z,9.20
2022-09-18T05:27:01.982Z,9.30
2022-09-18T05:29:28.654Z,9.30
2022-09-18T05:31:55.467Z,9.30
2022-09-18T05:34:22.251Z,9.40
2022-09-18T05:36:48.991Z,9.40
2022-09-18T05:39:17.758Z,9.50
2022-09-18T05:41:50.601Z,9.50
2022-09-18T05:44:18.364Z,9.60
2022-09-18T05:46:48.022Z,9.60
2022-09-18T05:49:15.784Z,9.60
2022-09-18T05:51:42.487Z,9.60
2022-09-18T05:54:09.246Z,9.60
2022-09-18T05:56:35.918Z,9.60
2022-09-18T05:59:02.631Z,9.60
2022-09-18T06:01:31.436Z,9.60
2022-09-18T06:03:59.478Z,9.60
2022-09-18T06:06:29.898Z,9.60
2022-09-18T06:08:57.155Z,9.60
2022-09-18T06:11:24.310Z,9.50
2022-09-18T06:13:52.423Z,9.50
2022-09-18T06:16:20.019Z,9.50
2022-09-18T06:18:46.963Z,9.50
2022-09-18T06:21:14.956Z,9.50
2022-09-18T06:23:42.534Z,9.40
2022-09-18T06:26:14.747Z,9.40
2022-09-18T06:28:41.901Z,9.40
2022-09-18T06:31:10.075Z,9.40
2022-09-18T06:33:36.883Z,9.40
2022-09-18T06:36:08.817Z,9.40
2022-09-18T06:38:35.507Z,9.40
2022-09-18T06:41:02.294Z,9.40
2022-09-18T06:43:29.018Z,9.40
2022-09-18T06:45:57.576Z,9.40
2022-09-18T06:48:25.412Z,9.40
2022-09-18T06:50:58.294Z,9.40
2022-09-18T06:53:26.290Z,9.40
2022-09-18T06:55:53.479Z,9.40
2022-09-18T06:58:20.264Z,9.40
2022-09-18T07:00:47.194Z,9.50
2022-09-18T07:03:14.077Z,9.50
2022-09-18T07:05:46.502Z,9.50
2022-09-18T07:08:13.764Z,9.40
2022-09-18T07:10:40.941Z,9.50
2022-09-18T07:13:08.403Z,9.50
2022-09-18T07:15:35.209Z,9.50
2022-09-18T07:18:04.167Z,9.50
2022-09-18T07:20:31.023Z,9.50
2022-09-18T07:23:01.005Z,9.50
2022-09-18T07:25:31.277Z,9.40
2022-09-18T07:28:07.826Z,9.50
2022-09-18T07:30:37.043Z,9.50
2022-09-18T07:33:06.710Z,9.40
2022-09-18T07:35:33.799Z,9.40
2022-09-18T07:38:02.615Z,9.40
2022-09-18T07:40:30.036Z,9.40
2022-09-18T07:43:10.564Z,9.40
2022-09-18T07:45:37.711Z,9.50
2022-09-18T07:48:07.354Z,9.50
2022-09-18T07:50:34.422Z,9.50
2022-09-18T07:53:05.107Z,9.60
2022-09-18T07:55:35.591Z,9.60
2022-09-18T07:58:06.069Z,9.60
2022-09-18T08:00:36.825Z,9.60
2022-09-18T08:03:12.939Z,9.60
2022-09-18T08:05:41.691Z,9.70
2022-09-18T08:08:12.953Z,9.70
2022-09-18T08:10:43.151Z,9.70
2022-09-18T08:13:10.383Z,9.60
2022-09-18T08:15:41.547Z,9.60
2022-09-18T08:18:11.439Z,9.60
2022-09-18T08:20:38.441Z,9.60
2022-09-18T08:23:09.188Z,9.60
2022-09-18T08:25:37.169Z,9.60
2022-09-18T08:28:06.683Z,9.60
2022-09-18T08:30:34.450Z,9.60
2022-09-18T08:33:07.434Z,9.70
2022-09-18T08:35:34.846Z,9.70
2022-09-18T08:38:01.958Z,9.70
2022-09-18T08:40:56.943Z,9.70
2022-09-18T08:43:48.181Z,9.70
2022-09-18T08:46:50.505Z,9.70
2022-09-18T08:49:32.918Z,9.80
2022-09-18T08:52:20.718Z,9.90
2022-09-18T08:55:21.605Z,9.90
2022-09-18T08:57:55.703Z,9.90
2022-09-18T09:00:36.660Z,10.00
2022-09-18T09:03:41.928Z,10.00
2022-09-18T09:06:33.535Z,10.00
2022-09-18T09:09:28.882Z,10.00
2022-09-18T09:12:28.955Z,10.00
2022-09-18T09:15:37.415Z,10.00
2022-09-18T09:18:18.875Z,10.00
2022-09-18T09:20:57.614Z,10.10
2022-09-18T09:24:01.790Z,10.20
2022-09-18T09:26:32.086Z,10.20
2022-09-18T09:29:25.435Z,10.30
2022-09-18T09:31:59.637Z,10.40
2022-09-18T09:34:42.179Z,10.50
2022-09-18T09:37:23.746Z,10.60
2022-09-18T09:40:25.090Z,10.70
2022-09-18T09:43:04.458Z,10.70
2022-09-18T09:45:48.885Z,10.70
2022-09-18T09:48:52.249Z,10.70
2022-09-18T09:51:59.644Z,10.70
2022-09-18T09:54:26.348Z,10.70
2022-09-18T09:57:25.256Z,10.70
2022-09-18T10:00:05.317Z,10.70
2022-09-18T10:02:46.256Z,10.70
2022-09-18T10:05:43.883Z,10.70
2022-09-18T10:08:31.996Z,10.80
2022-09-18T10:11:02.469Z,10.90
2022-09-18T10:13:53.585Z,10.90
2022-09-18T10:16:31.052Z,10.80
2022-09-18T10:19:00.434Z,10.90
2022-09-18T10:21:36.141Z,10.90
2022-09-18T10:24:47.795Z,11.00
2022-09-18T10:27:16.114Z,11.00
2022-09-18T10:29:43.489Z,11.00
2022-09-18T10:32:13.721Z,11.00
2022-09-18T10:34:50.323Z,11.00
2022-09-18T10:37:29.073Z,10.90
2022-09-18T10:39:59.836Z,11.00
2022-09-18T10:42:36.354Z,11.00
2022-09-18T10:45:20.331Z,11.10
2022-09-18T10:47:47.267Z,11.10
2022-09-18T10:50:14.183Z,11.10
2022-09-18T10:52:48.587Z,11.10
2022-09-18T10:55:27.267Z,11.10
2022-09-18T10:57:56.691Z,11.10
2022-09-18T11:00:27.771Z,11.20
2022-09-18T11:02:59.160Z,11.20
2022-09-18T11:05:36.835Z,11.20
2022-09-18T11:08:21.908Z,11.10
2022-09-18T11:10:53.116Z,11.10
2022-09-18T11:13:27.041Z,11.00
2022-09-18T11:15:58.928Z,11.00
2022-09-18T11:18:27.620Z,10.90
2022-09-18T11:20:57.644Z,10.90
2022-09-18T11:23:35.298Z,10.80
2022-09-18T11:26:26.465Z,10.70
2022-09-18T11:29:17.527Z,10.70
2022-09-18T11:31:51.597Z,10.70
2022-09-18T11:34:29.509Z,10.70
2022-09-18T11:37:07.816Z,10.60
2022-09-18T11:39:42.672Z,10.60
2022-09-18T11:42:14.446Z,10.60
2022-09-18T11:44:42.097Z,10.60
2022-09-18T11:47:36.534Z,10.70
2022-09-18T11:50:17.817Z,10.70
2022-09-18T11:53:20.022Z,10.80
2022-09-18T11:56:15.774Z,10.90
2022-09-18T11:58:58.433Z,10.90
2022-09-18T12:01:41.617Z,11.00
2022-09-18T12:04:16.890Z,11.00
2022-09-18T12:07:08.271Z,11.00
2022-09-18T12:10:13.858Z,11.10
2022-09-18T12:12:45.299Z,11.30
2022-09-18T12:15:27.803Z,11.40
2022-09-18T12:18:02.842Z,11.60
2022-09-18T12:20:40.120Z,11.70
2022-09-18T12:23:14.213Z,11.70
2022-09-18T12:26:05.008Z,11.70
2022-09-18T12:28:58.351Z,11.70
2022-09-18T12:31:54.249Z,11.70
2022-09-18T12:34:42.596Z,11.60
2022-09-18T12:37:45.430Z,11.60
2022-09-18T12:40:58.650Z,11.70
2022-09-18T12:44:06.561Z,11.70
2022-09-18T12:47:13.465Z,11.70
2022-09-18T12:50:45.837Z,11.70
2022-09-18T12:54:06.581Z,11.70
2022-09-18T12:57:09.780Z,11.80
2022-09-18T12:59:52.384Z,11.90
2022-09-18T13:02:48.128Z,11.80
2022-09-18T13:05:27.599Z,11.80
2022-09-18T13:08:16.338Z,11.80
2022-09-18T13:10:47.088Z,11.80
2022-09-18T13:13:28.078Z,11.80
2022-09-18T13:16:07.849Z,11.80
2022-09-18T13:18:51.619Z,11.90
2022-09-18T13:21:34.565Z,12.00
2022-09-18T13:24:03.667Z,12.10
2022-09-18T13:26:36.677Z,12.10
2022-09-18T13:29:05.510Z,12.10
2022-09-18T13:31:34.882Z,12.30
2022-09-18T13:34:17.167Z,12.20
2022-09-18T13:36:46.559Z,12.80
2022-09-18T13:39:24.360Z,12.10
2022-09-18T13:41:54.668Z,12.10
2022-09-18T13:44:26.180Z,12.00
2022-09-18T13:46:57.231Z,11.90
2022-09-18T13:49:37.405Z,11.80
2022-09-18T13:52:33.615Z,11.80
2022-09-18T13:55:18.203Z,11.70
2022-09-18T13:57:45.438Z,11.70
2022-09-18T14:00:21.353Z,11.80
2022-09-18T14:03:08.911Z,11.80
2022-09-18T14:05:38.700Z,11.80
2022-09-18T14:08:38.280Z,11.80
2022-09-18T14:11:15.488Z,11.80
2022-09-18T14:13:46.141Z,11.80
2022-09-18T14:16:19.030Z,11.80
2022-09-18T14:18:48.592Z,11.80
2022-09-18T14:21:18.260Z,11.80
2022-09-18T14:23:45.899Z,11.80
2022-09-18T14:26:30.757Z,11.80
2022-09-18T14:29:09.984Z,11.90
2022-09-18T14:31:41.145Z,11.90
2022-09-18T14:34:32.725Z,11.90
2022-09-18T14:37:19.066Z,11.90
2022-09-18T14:39:46.500Z,11.90
2022-09-18T14:42:38.703Z,11.90
2022-09-18T14:45:12.207Z,11.80
2022-09-18T14:47:45.601Z,11.80
2022-09-18T14:50:31.236Z,11.70
2022-09-18T14:53:03.523Z,11.60
2022-09-18T14:55:40.724Z,11.50
2022-09-18T14:58:19.286Z,11.50
2022-09-18T15:00:51.135Z,11.40
2022-09-18T15:03:38.178Z,11.30
2022-09-18T15:06:44.829Z,11.20
2022-09-18T15:09:15.173Z,11.10
2022-09-18T15:12:01.773Z,11.00
2022-09-18T15:14:43.982Z,11.00
2022-09-18T15:17:28.179Z,10.90
2022-09-18T15:20:17.918Z,10.80
2022-09-18T15:22:44.626Z,10.80
2022-09-18T15:25:16.270Z,10.80
2022-09-18T15:27:44.702Z,10.70
2022-09-18T15:30:24.066Z,10.70
2022-09-18T15:32:56.568Z,10.60
2022-09-18T15:35:34.768Z,10.60
2022-09-18T15:38:15.215Z,10.60
2022-09-18T15:40:43.566Z,10.50
2022-09-18T15:43:30.254Z,10.50
2022-09-18T15:46:23.274Z,10.40
2022-09-18T15:48:51.867Z,10.40
2022-09-18T15:51:34.354Z,10.40
2022-09-18T15:54:09.066Z,10.30
2022-09-18T15:56:49.508Z,10.30
2022-09-18T15:59:22.345Z,10.30
2022-09-18T16:01:49.269Z,10.30
2022-09-18T16:04:25.595Z,10.30
2022-09-18T16:07:00.756Z,10.30
2022-09-18T16:09:46.273Z,10.30
2022-09-18T16:12:30.984Z,10.20
2022-09-18T16:15:02.097Z,10.20
2022-09-18T16:17:28.756Z,10.10
2022-09-18T16:19:57.835Z,10.10
2022-09-18T16:22:28.737Z,10.10
2022-09-18T16:24:57.465Z,10.10
2022-09-18T16:27:26.307Z,10.10
2022-09-18T16:29:53.001Z,10.10
2022-09-18T16:32:21.616Z,10.10
2022-09-18T16:34:48.328Z,10.10
2022-09-18T16:37:17.273Z,10.10
2022-09-18T16:39:44.669Z,10.10
2022-09-18T16:42:18.620Z,10.00
2022-09-18T16:44:46.051Z,10.10
2022-09-18T16:47:15.818Z,10.00
2022-09-18T16:49:46.603Z,10.00
2022-09-18T16:52:13.781Z,10.00
2022-09-18T16:54:40.873Z,10.00
2022-09-18T16:57:19.335Z,10.00
2022-09-18T16:59:48.050Z,10.00
2022-09-18T17:02:22.343Z,9.90
2022-09-18T17:04:51.005Z,9.90
2022-09-18T17:07:17.726Z,9.90
2022-09-18T17:09:44.435Z,9.90
2022-09-18T17:12:11.126Z,9.90
2022-09-18T17:14:37.847Z,9.90
2022-09-18T17:17:05.868Z,9.80
2022-09-18T17:19:32.620Z,9.80
2022-09-18T17:21:59.329Z,9.80
2022-09-18T17:24:27.868Z,9.80
2022-09-18T17:26:54.856Z,9.80
2022-09-18T17:29:22.072Z,9.70
2022-09-18T17:31:49.193Z,9.70
2022-09-18T17:34:18.929Z,9.80
2022-09-18T17:36:46.186Z,9.80
2022-09-18T17:39:13.481Z,9.80
2022-09-18T17:41:42.498Z,9.70
2022-09-18T17:44:09.259Z,9.70
2022-09-18T17:46:35.993Z,9.70
2022-09-18T17:49:02.836Z,9.70
2022-09-18T17:51:29.666Z,9.70
2022-09-18T17:54:02.564Z,9.70
2022-09-18T17:56:30.642Z,9.70
2022-09-18T17:59:05.904Z,9.70
2022-09-18T18:01:37.428Z,9.60
2022-09-18T18:04:05.163Z,9.70
2022-09-18T18:06:32.398Z,9.60
2022-09-18T18:08:59.152Z,9.60
2022-09-18T18:11:26.598Z,9.60
2022-09-18T18:13:54.557Z,9.60
2022-09-18T18:16:28.680Z,9.60
2022-09-18T18:19:00.649Z,9.60
2022-09-18T18:21:29.119Z,9.60
2022-09-18T18:24:08.889Z,9.60
2022-09-18T18:26:38.353Z,9.50
2022-09-18T18:29:08.369Z,9.60
2022-09-18T18:31:36.323Z,9.50
2022-09-18T18:34:04.305Z,9.50
2022-09-18T18:36:33.697Z,9.50
2022-09-18T18:39:04.042Z,9.50
2022-09-18T18:41:32.195Z,9.60
2022-09-18T18:44:03.109Z,9.60
2022-09-18T18:46:35.603Z,9.60
2022-09-18T18:49:08.790Z,9.60
2022-09-18T18:52:02.065Z,9.60
2022-09-18T18:54:28.986Z,9.60
2022-09-18T18:56:55.741Z,9.60
2022-09-18T18:59:24.201Z,9.50
2022-09-18T19:01:54.671Z,9.50
2022-09-18T19:04:21.455Z,9.50
2022-09-18T19:06:48.965Z,9.40
2022-09-18T19:09:20.456Z,9.40
2022-09-18T19:11:49.971Z,9.40
2022-09-18T19:14:29.566Z,9.40
2022-09-18T19:16:56.973Z,9.30
2022-09-18T19:19:26.684Z,9.30
2022-09-18T19:21:53.872Z,9.30
2022-09-18T19:24:21.161Z,9.30
2022-09-18T19:26:48.167Z,9.20
2022-09-18T19:29:17.828Z,9.20
2022-09-18T19:31:46.498Z,9.20
2022-09-18T19:34:17.414Z,9.20
2022-09-18T19:36:48.899Z,9.20
2022-09-18T19:39:17.331Z,9.20
2022-09-18T19:42:12.222Z,9.20
2022-09-18T19:44:49.840Z,9.20
2022-09-18T19:47:31.579Z,9.20
2022-09-18T19:50:02.405Z,9.10
2022-09-18T19:52:29.627Z,9.10
2022-09-18T19:54:58.400Z,9.10
2022-09-18T19:57:28.402Z,9.10
2022-09-18T19:59:56.968Z,9.10
2022-09-18T20:02:25.326Z,9.00
2022-09-18T20:04:52.197Z,9.00
2022-09-18T20:07:19.127Z,9.00
2022-09-18T20:09:45.830Z,9.00
2022-09-18T20:12:12.917Z,9.00
2022-09-18T20:14:39.804Z,9.00
2022-09-18T20:17:06.737Z,9.00
2022-09-18T20:19:33.837Z,9.00
2022-09-18T20:22:02.653Z,9.00
2022-09-18T20:24:31.554Z,8.90
2022-09-18T20:26:59.557Z,8.90
2022-09-18T20:29:27.603Z,8.90
2022-09-18T20:31:54.815Z,8.90
2022-09-18T20:34:24.592Z,8.90
2022-09-18T20:36:52.502Z,8.90
2022-09-18T20:39:19.411Z,8.90
2022-09-18T20:41:46.416Z,8.80
2022-09-18T20:44:13.901Z,8.70
2022-09-18T20:46:42.673Z,8.70
2022-09-18T20:49:10.948Z,8.60
2022-09-18T20:51:37.717Z,8.50
2022-09-18T20:54:07.930Z,8.40
2022-09-18T20:56:41.905Z,8.40
2022-09-18T20:59:10.855Z,8.40
2022-09-18T21:01:40.161Z,8.40
2022-09-18T21:04:08.867Z,8.30
2022-09-18T21:06:36.166Z,8.30
2022-09-18T21:09:08.672Z,8.30
2022-09-18T21:11:39.678Z,8.30
2022-09-18T21:14:09.598Z,8.30
2022-09-18T21:16:42.923Z,8.30
2022-09-18T21:19:19.160Z,8.30
2022-09-18T21:21:48.179Z,8.30
2022-09-18T21:24:17.210Z,8.30
2022-09-18T21:26:49.018Z,8.30
2022-09-18T21:29:22.692Z,8.30
2022-09-18T21:31:57.933Z,8.30
2022-09-18T21:34:29.958Z,8.30
2022-09-18T21:36:59.973Z,8.30
2022-09-18T21:39:28.524Z,8.20
2022-09-18T21:41:57.125Z,8.20
2022-09-18T21:44:27.011Z,8.20
2022-09-18T21:47:00.466Z,8.10
2022-09-18T21:49:28.956Z,8.10
2022-09-18T21:51:59.154Z,8.10
2022-09-18T21:54:27.200Z,8.10
2022-09-18T21:56:56.468Z,8.10
2022-09-18T21:59:27.146Z,8.00
2022-09-18T22:01:55.016Z,8.00
2022-09-18T22:04:26.119Z,8.00
2022-09-18T22:06:56.416Z,8.10
2022-09-18T22:09:30.413Z,8.00
2022-09-18T22:11:59.863Z,8.00
2022-09-18T22:14:31.796Z,8.00
2022-09-18T22:17:01.520Z,8.00
2022-09-18T22:19:29.573Z,8.00
2022-09-18T22:21:57.449Z,8.00
2022-09-18T22:24:26.878Z,8.00
2022-09-18T22:27:12.813Z,7.90
2022-09-18T22:29:40.998Z,7.80
2022-09-18T22:32:09.888Z,7.90
2022-09-18T22:34:37.181Z,7.90
2022-09-18T22:37:04.717Z,7.90
2022-09-18T22:39:31.468Z,7.90
2022-09-18T22:42:01.764Z,7.80
2022-09-18T22:44:28.461Z,7.80
2022-09-18T22:46:55.272Z,7.80
2022-09-18T22:49:23.647Z,7.80
2022-09-18T22:51:51.570Z,7.90
2022-09-18T22:54:24.382Z,7.80
2022-09-18T22:56:52.356Z,7.80
2022-09-18T22:59:22.760Z,7.80
2022-09-18T23:02:03.768Z,7.70
2022-09-18T23:04:33.324Z,7.70
2022-09-18T23:07:01.174Z,7.60
2022-09-18T23:09:29.217Z,7.60
2022-09-18T23:11:57.694Z,7.60
2022-09-18T23:14:28.074Z,7.50
2022-09-18T23:16:56.664Z,7.40
2022-09-18T23:19:32.907Z,7.40
2022-09-18T23:21:59.939Z,7.40
2022-09-18T23:24:27.468Z,7.40
2022-09-18T23:26:58.034Z,7.40
2022-09-18T23:29:27.268Z,7.30
2022-09-18T23:31:58.174Z,7.30
2022-09-18T23:34:30.361Z,7.40
2022-09-18T23:36:58.434Z,7.30
2022-09-18T23:39:32.590Z,7.40
2022-09-18T23:42:02.000Z,7.30
2022-09-18T23:44:30.992Z,7.30
2022-09-18T23:46:59.111Z,7.30
2022-09-18T23:49:26.026Z,7.20
2022-09-18T23:51:55.927Z,7.20
2022-09-18T23:54:29.574Z,7.10
2022-09-18T23:56:56.859Z,7.10
2022-09-18T23:59:25.472Z,7.00
